sensor_id;sensor_type;location;lat;lon;timestamp;P1;durP1;ratioP1;P2;durP2;ratioP2
43160;SDS011;40968;52.342;5.528;2022-08-18T00:02:10;20.60;;;8.68;;
43160;SDS011;40968;52.342;5.528;2022-08-18T00:04:39;19.90;;;10.30;;
43160;SDS011;40968;52.342;5.528;2022-08-18T00:07:07;25.25;;;10.18;;
43160;SDS011;40968;52.342;5.528;2022-08-18T00:09:36;18.42;;;8.50;;
43160;SDS011;40968;52.342;5.528;2022-08-18T00:12:05;25.45;;;10.07;;
43160;SDS011;40968;52.342;5.528;2022-08-18T00:17:03;24.77;;;9.32;;
43160;SDS011;40968;52.342;5.528;2022-08-18T00:19:29;23.92;;;9.98;;
43160;SDS011;40968;52.342;5.528;2022-08-18T00:21:56;24.33;;;9.57;;
43160;SDS011;40968;52.342;5.528;2022-08-18T00:24:23;23.08;;;9.20;;
43160;SDS011;40968;52.342;5.528;2022-08-18T00:26:49;23.15;;;9.65;;
43160;SDS011;40968;52.342;5.528;2022-08-18T00:29:16;28.55;;;9.55;;
43160;SDS011;40968;52.342;5.528;2022-08-18T00:31:44;29.85;;;10.05;;
43160;SDS011;40968;52.342;5.528;2022-08-18T00:34:11;15.48;;;7.63;;
43160;SDS011;40968;52.342;5.528;2022-08-18T00:36:37;15.45;;;6.70;;
43160;SDS011;40968;52.342;5.528;2022-08-18T00:39:04;31.33;;;9.85;;
43160;SDS011;40968;52.342;5.528;2022-08-18T00:41:31;26.27;;;8.70;;
43160;SDS011;40968;52.342;5.528;2022-08-18T00:43:58;22.65;;;8.52;;
43160;SDS011;40968;52.342;5.528;2022-08-18T00:46:26;24.02;;;8.98;;
43160;SDS011;40968;52.342;5.528;2022-08-18T00:48:55;26.35;;;10.07;;
43160;SDS011;40968;52.342;5.528;2022-08-18T00:51:23;26.60;;;9.70;;
43160;SDS011;40968;52.342;5.528;2022-08-18T00:53:55;29.10;;;10.60;;
43160;SDS011;40968;52.342;5.528;2022-08-18T00:56:27;27.77;;;10.02;;
43160;SDS011;40968;52.342;5.528;2022-08-18T00:58:58;28.85;;;10.52;;
43160;SDS011;40968;52.342;5.528;2022-08-18T01:01:29;33.83;;;11.55;;
43160;SDS011;40968;52.342;5.528;2022-08-18T01:04:00;31.00;;;11.48;;
43160;SDS011;40968;52.342;5.528;2022-08-18T01:06:33;32.50;;;11.38;;
43160;SDS011;40968;52.342;5.528;2022-08-18T01:09:05;23.73;;;10.40;;
43160;SDS011;40968;52.342;5.528;2022-08-18T01:11:32;26.70;;;10.90;;
43160;SDS011;40968;52.342;5.528;2022-08-18T01:14:01;28.15;;;9.82;;
43160;SDS011;40968;52.342;5.528;2022-08-18T01:16:28;24.73;;;9.40;;
43160;SDS011;40968;52.342;5.528;2022-08-18T01:19:13;26.50;;;9.32;;
43160;SDS011;40968;52.342;5.528;2022-08-18T01:22:01;24.92;;;7.53;;
43160;SDS011;40968;52.342;5.528;2022-08-18T01:24:34;26.45;;;10.43;;
43160;SDS011;40968;52.342;5.528;2022-08-18T01:27:20;24.40;;;9.02;;
43160;SDS011;40968;52.342;5.528;2022-08-18T01:29:48;25.45;;;9.35;;
43160;SDS011;40968;52.342;5.528;2022-08-18T01:32:15;25.15;;;9.32;;
43160;SDS011;40968;52.342;5.528;2022-08-18T01:34:44;27.00;;;8.93;;
43160;SDS011;40968;52.342;5.528;2022-08-18T01:37:12;21.25;;;8.25;;
43160;SDS011;40968;52.342;5.528;2022-08-18T01:39:42;24.13;;;8.85;;
43160;SDS011;40968;52.342;5.528;2022-08-18T01:42:09;28.13;;;9.07;;
43160;SDS011;40968;52.342;5.528;2022-08-18T01:44:35;30.73;;;10.45;;
43160;SDS011;40968;52.342;5.528;2022-08-18T01:47:04;20.65;;;8.40;;
43160;SDS011;40968;52.342;5.528;2022-08-18T01:49:31;23.90;;;8.70;;
43160;SDS011;40968;52.342;5.528;2022-08-18T01:51:57;28.65;;;10.45;;
43160;SDS011;40968;52.342;5.528;2022-08-18T01:54:24;30.42;;;10.68;;
43160;SDS011;40968;52.342;5.528;2022-08-18T01:56:55;26.10;;;10.07;;
43160;SDS011;40968;52.342;5.528;2022-08-18T01:59:22;26.95;;;9.57;;
43160;SDS011;40968;52.342;5.528;2022-08-18T02:01:48;21.48;;;9.13;;
43160;SDS011;40968;52.342;5.528;2022-08-18T02:04:18;29.05;;;10.77;;
43160;SDS011;40968;52.342;5.528;2022-08-18T02:06:47;25.38;;;10.50;;
43160;SDS011;40968;52.342;5.528;2022-08-18T02:09:15;27.92;;;10.80;;
43160;SDS011;40968;52.342;5.528;2022-08-18T02:11:41;25.27;;;9.68;;
43160;SDS011;40968;52.342;5.528;2022-08-18T02:14:09;23.92;;;9.55;;
43160;SDS011;40968;52.342;5.528;2022-08-18T02:16:36;25.50;;;10.40;;
43160;SDS011;40968;52.342;5.528;2022-08-18T02:19:02;21.73;;;9.57;;
43160;SDS011;40968;52.342;5.528;2022-08-18T02:21:29;27.08;;;9.60;;
43160;SDS011;40968;52.342;5.528;2022-08-18T02:23:55;21.30;;;8.90;;
43160;SDS011;40968;52.342;5.528;2022-08-18T02:26:22;30.02;;;11.25;;
43160;SDS011;40968;52.342;5.528;2022-08-18T02:28:48;22.40;;;10.65;;
43160;SDS011;40968;52.342;5.528;2022-08-18T02:31:18;33.85;;;11.27;;
43160;SDS011;40968;52.342;5.528;2022-08-18T02:33:45;19.30;;;10.02;;
43160;SDS011;40968;52.342;5.528;2022-08-18T02:36:12;16.73;;;7.03;;
43160;SDS011;40968;52.342;5.528;2022-08-18T02:38:40;26.63;;;9.43;;
43160;SDS011;40968;52.342;5.528;2022-08-18T02:41:08;20.35;;;7.43;;
43160;SDS011;40968;52.342;5.528;2022-08-18T02:43:37;16.55;;;7.43;;
43160;SDS011;40968;52.342;5.528;2022-08-18T02:46:05;27.20;;;9.85;;
43160;SDS011;40968;52.342;5.528;2022-08-18T02:48:33;26.60;;;9.20;;
43160;SDS011;40968;52.342;5.528;2022-08-18T02:51:00;23.23;;;8.70;;
43160;SDS011;40968;52.342;5.528;2022-08-18T02:53:28;25.67;;;9.73;;
43160;SDS011;40968;52.342;5.528;2022-08-18T02:55:55;23.05;;;9.35;;
43160;SDS011;40968;52.342;5.528;2022-08-18T02:58:34;26.88;;;10.77;;
43160;SDS011;40968;52.342;5.528;2022-08-18T03:01:00;21.80;;;7.20;;
43160;SDS011;40968;52.342;5.528;2022-08-18T03:03:27;18.95;;;7.72;;
43160;SDS011;40968;52.342;5.528;2022-08-18T03:05:57;21.00;;;8.43;;
43160;SDS011;40968;52.342;5.528;2022-08-18T03:08:24;26.60;;;10.38;;
43160;SDS011;40968;52.342;5.528;2022-08-18T03:10:51;24.38;;;8.85;;
43160;SDS011;40968;52.342;5.528;2022-08-18T03:13:17;27.40;;;10.00;;
43160;SDS011;40968;52.342;5.528;2022-08-18T03:15:44;21.90;;;9.60;;
43160;SDS011;40968;52.342;5.528;2022-08-18T03:18:11;24.50;;;10.23;;
43160;SDS011;40968;52.342;5.528;2022-08-18T03:20:37;26.40;;;10.25;;
43160;SDS011;40968;52.342;5.528;2022-08-18T03:23:06;19.90;;;9.15;;
43160;SDS011;40968;52.342;5.528;2022-08-18T03:25:33;24.58;;;10.88;;
43160;SDS011;40968;52.342;5.528;2022-08-18T03:28:01;18.50;;;8.73;;
43160;SDS011;40968;52.342;5.528;2022-08-18T03:30:28;23.73;;;8.55;;
43160;SDS011;40968;52.342;5.528;2022-08-18T03:32:55;23.58;;;9.65;;
43160;SDS011;40968;52.342;5.528;2022-08-18T03:35:22;33.38;;;11.90;;
43160;SDS011;40968;52.342;5.528;2022-08-18T03:37:49;23.33;;;10.35;;
43160;SDS011;40968;52.342;5.528;2022-08-18T03:40:17;30.23;;;10.77;;
43160;SDS011;40968;52.342;5.528;2022-08-18T03:42:43;27.80;;;11.15;;
43160;SDS011;40968;52.342;5.528;2022-08-18T03:45:10;27.30;;;11.38;;
43160;SDS011;40968;52.342;5.528;2022-08-18T03:47:36;28.98;;;12.40;;
43160;SDS011;40968;52.342;5.528;2022-08-18T03:50:04;26.20;;;11.32;;
43160;SDS011;40968;52.342;5.528;2022-08-18T03:52:31;30.63;;;11.85;;
43160;SDS011;40968;52.342;5.528;2022-08-18T03:54:58;25.95;;;10.82;;
43160;SDS011;40968;52.342;5.528;2022-08-18T03:57:26;28.92;;;11.60;;
43160;SDS011;40968;52.342;5.528;2022-08-18T03:59:57;30.60;;;12.13;;
43160;SDS011;40968;52.342;5.528;2022-08-18T04:02:24;28.50;;;11.63;;
43160;SDS011;40968;52.342;5.528;2022-08-18T04:04:50;23.67;;;10.32;;
43160;SDS011;40968;52.342;5.528;2022-08-18T04:07:17;22.17;;;8.82;;
43160;SDS011;40968;52.342;5.528;2022-08-18T04:09:43;36.35;;;13.05;;
43160;SDS011;40968;52.342;5.528;2022-08-18T04:12:11;26.77;;;10.32;;
43160;SDS011;40968;52.342;5.528;2022-08-18T04:14:41;35.85;;;13.07;;
43160;SDS011;40968;52.342;5.528;2022-08-18T04:19:36;30.38;;;12.77;;
43160;SDS011;40968;52.342;5.528;2022-08-18T04:22:04;28.77;;;11.40;;
43160;SDS011;40968;52.342;5.528;2022-08-18T04:24:31;28.40;;;11.13;;
43160;SDS011;40968;52.342;5.528;2022-08-18T04:26:59;28.15;;;12.20;;
43160;SDS011;40968;52.342;5.528;2022-08-18T04:29:26;28.17;;;12.00;;
43160;SDS011;40968;52.342;5.528;2022-08-18T04:31:55;41.70;;;11.98;;
43160;SDS011;40968;52.342;5.528;2022-08-18T04:34:22;25.83;;;10.23;;
43160;SDS011;40968;52.342;5.528;2022-08-18T04:36:49;23.05;;;8.80;;
43160;SDS011;40968;52.342;5.528;2022-08-18T04:39:17;26.02;;;10.88;;
43160;SDS011;40968;52.342;5.528;2022-08-18T04:41:45;23.63;;;9.77;;
43160;SDS011;40968;52.342;5.528;2022-08-18T04:44:12;22.58;;;9.90;;
43160;SDS011;40968;52.342;5.528;2022-08-18T04:46:42;26.50;;;10.60;;
43160;SDS011;40968;52.342;5.528;2022-08-18T04:49:13;39.53;;;11.88;;
43160;SDS011;40968;52.342;5.528;2022-08-18T04:51:41;27.38;;;11.05;;
43160;SDS011;40968;52.342;5.528;2022-08-18T04:54:30;31.27;;;11.23;;
43160;SDS011;40968;52.342;5.528;2022-08-18T04:56:56;26.48;;;9.98;;
43160;SDS011;40968;52.342;5.528;2022-08-18T04:59:22;22.02;;;9.55;;
43160;SDS011;40968;52.342;5.528;2022-08-18T05:01:49;25.95;;;9.63;;
43160;SDS011;40968;52.342;5.528;2022-08-18T05:04:17;26.75;;;10.45;;
43160;SDS011;40968;52.342;5.528;2022-08-18T05:06:44;18.88;;;8.25;;
43160;SDS011;40968;52.342;5.528;2022-08-18T05:09:12;25.08;;;9.68;;
43160;SDS011;40968;52.342;5.528;2022-08-18T05:11:40;26.35;;;10.40;;
43160;SDS011;40968;52.342;5.528;2022-08-18T05:14:08;25.38;;;9.18;;
43160;SDS011;40968;52.342;5.528;2022-08-18T05:16:35;28.00;;;9.98;;
43160;SDS011;40968;52.342;5.528;2022-08-18T05:19:04;27.65;;;11.50;;
43160;SDS011;40968;52.342;5.528;2022-08-18T05:21:34;27.35;;;9.00;;
43160;SDS011;40968;52.342;5.528;2022-08-18T05:24:02;21.35;;;9.65;;
43160;SDS011;40968;52.342;5.528;2022-08-18T05:26:29;25.02;;;9.38;;
43160;SDS011;40968;52.342;5.528;2022-08-18T05:28:57;22.50;;;9.73;;
43160;SDS011;40968;52.342;5.528;2022-08-18T05:31:24;27.50;;;10.43;;
43160;SDS011;40968;52.342;5.528;2022-08-18T05:33:52;23.55;;;9.82;;
43160;SDS011;40968;52.342;5.528;2022-08-18T05:36:24;27.02;;;10.02;;
43160;SDS011;40968;52.342;5.528;2022-08-18T05:39:02;26.15;;;9.93;;
43160;SDS011;40968;52.342;5.528;2022-08-18T05:41:38;21.90;;;9.52;;
43160;SDS011;40968;52.342;5.528;2022-08-18T05:44:06;21.02;;;7.22;;
43160;SDS011;40968;52.342;5.528;2022-08-18T05:46:37;19.77;;;8.10;;
43160;SDS011;40968;52.342;5.528;2022-08-18T05:49:09;20.10;;;7.93;;
43160;SDS011;40968;52.342;5.528;2022-08-18T05:51:38;19.27;;;8.48;;
43160;SDS011;40968;52.342;5.528;2022-08-18T05:54:08;33.63;;;10.10;;
43160;SDS011;40968;52.342;5.528;2022-08-18T05:56:54;17.58;;;7.93;;
43160;SDS011;40968;52.342;5.528;2022-08-18T05:59:24;21.37;;;8.07;;
43160;SDS011;40968;52.342;5.528;2022-08-18T06:01:58;18.48;;;7.55;;
43160;SDS011;40968;52.342;5.528;2022-08-18T06:04:37;21.45;;;8.90;;
43160;SDS011;40968;52.342;5.528;2022-08-18T06:07:08;24.77;;;8.85;;
43160;SDS011;40968;52.342;5.528;2022-08-18T06:09:40;26.52;;;9.45;;
43160;SDS011;40968;52.342;5.528;2022-08-18T06:12:16;21.88;;;8.90;;
43160;SDS011;40968;52.342;5.528;2022-08-18T06:14:47;19.00;;;8.82;;
43160;SDS011;40968;52.342;5.528;2022-08-18T06:17:18;27.15;;;9.75;;
43160;SDS011;40968;52.342;5.528;2022-08-18T06:20:20;17.30;;;7.78;;
43160;SDS011;40968;52.342;5.528;2022-08-18T06:22:57;22.80;;;9.25;;
43160;SDS011;40968;52.342;5.528;2022-08-18T06:25:36;29.45;;;9.70;;
43160;SDS011;40968;52.342;5.528;2022-08-18T06:28:15;28.45;;;8.27;;
43160;SDS011;40968;52.342;5.528;2022-08-18T06:30:44;23.85;;;8.77;;
43160;SDS011;40968;52.342;5.528;2022-08-18T06:33:18;27.70;;;8.38;;
43160;SDS011;40968;52.342;5.528;2022-08-18T06:36:01;18.55;;;8.18;;
43160;SDS011;40968;52.342;5.528;2022-08-18T06:38:34;23.00;;;8.00;;
43160;SDS011;40968;52.342;5.528;2022-08-18T06:41:16;18.48;;;7.50;;
43160;SDS011;40968;52.342;5.528;2022-08-18T06:43:52;18.75;;;5.53;;
43160;SDS011;40968;52.342;5.528;2022-08-18T06:46:26;16.75;;;5.60;;
43160;SDS011;40968;52.342;5.528;2022-08-18T06:48:58;13.40;;;5.95;;
43160;SDS011;40968;52.342;5.528;2022-08-18T06:51:29;19.10;;;6.00;;
43160;SDS011;40968;52.342;5.528;2022-08-18T06:53:57;14.95;;;6.55;;
43160;SDS011;40968;52.342;5.528;2022-08-18T06:56:31;11.98;;;5.22;;
43160;SDS011;40968;52.342;5.528;2022-08-18T06:59:20;9.98;;;4.82;;
43160;SDS011;40968;52.342;5.528;2022-08-18T07:01:50;14.18;;;5.57;;
43160;SDS011;40968;52.342;5.528;2022-08-18T07:04:33;11.02;;;5.03;;
43160;SDS011;40968;52.342;5.528;2022-08-18T07:07:16;13.85;;;5.85;;
43160;SDS011;40968;52.342;5.528;2022-08-18T07:09:46;10.93;;;4.90;;
43160;SDS011;40968;52.342;5.528;2022-08-18T07:12:20;16.92;;;5.57;;
43160;SDS011;40968;52.342;5.528;2022-08-18T07:14:49;11.18;;;4.85;;
43160;SDS011;40968;52.342;5.528;2022-08-18T07:19:57;15.45;;;5.43;;
43160;SDS011;40968;52.342;5.528;2022-08-18T07:22:26;12.38;;;5.20;;
43160;SDS011;40968;52.342;5.528;2022-08-18T07:24:54;18.20;;;4.95;;
43160;SDS011;40968;52.342;5.528;2022-08-18T07:30:26;10.35;;;4.63;;
43160;SDS011;40968;52.342;5.528;2022-08-18T07:32:57;13.23;;;5.43;;
43160;SDS011;40968;52.342;5.528;2022-08-18T07:35:29;12.07;;;5.40;;
43160;SDS011;40968;52.342;5.528;2022-08-18T07:38:03;19.25;;;6.15;;
43160;SDS011;40968;52.342;5.528;2022-08-18T07:40:44;18.50;;;7.07;;
43160;SDS011;40968;52.342;5.528;2022-08-18T07:43:16;12.80;;;5.75;;
43160;SDS011;40968;52.342;5.528;2022-08-18T07:45:49;16.38;;;6.88;;
43160;SDS011;40968;52.342;5.528;2022-08-18T07:48:22;21.88;;;6.50;;
43160;SDS011;40968;52.342;5.528;2022-08-18T07:50:56;16.80;;;6.43;;
43160;SDS011;40968;52.342;5.528;2022-08-18T07:53:30;14.52;;;6.32;;
43160;SDS011;40968;52.342;5.528;2022-08-18T07:56:04;11.80;;;5.82;;
43160;SDS011;40968;52.342;5.528;2022-08-18T07:58:39;13.60;;;5.45;;
43160;SDS011;40968;52.342;5.528;2022-08-18T08:01:15;12.00;;;5.88;;
43160;SDS011;40968;52.342;5.528;2022-08-18T08:03:49;13.63;;;5.00;;
43160;SDS011;40968;52.342;5.528;2022-08-18T08:06:22;13.82;;;6.03;;
43160;SDS011;40968;52.342;5.528;2022-08-18T08:08:59;11.93;;;4.80;;
43160;SDS011;40968;52.342;5.528;2022-08-18T08:11:34;15.23;;;4.90;;
43160;SDS011;40968;52.342;5.528;2022-08-18T08:14:13;17.30;;;4.90;;
43160;SDS011;40968;52.342;5.528;2022-08-18T08:16:54;11.43;;;5.43;;
43160;SDS011;40968;52.342;5.528;2022-08-18T08:19:33;14.73;;;6.00;;
43160;SDS011;40968;52.342;5.528;2022-08-18T08:22:15;12.07;;;5.72;;
43160;SDS011;40968;52.342;5.528;2022-08-18T08:24:48;12.85;;;5.55;;
43160;SDS011;40968;52.342;5.528;2022-08-18T08:27:28;16.95;;;4.95;;
43160;SDS011;40968;52.342;5.528;2022-08-18T08:30:04;17.17;;;5.55;;
43160;SDS011;40968;52.342;5.528;2022-08-18T08:32:36;14.70;;;5.30;;
43160;SDS011;40968;52.342;5.528;2022-08-18T08:35:15;10.98;;;5.07;;
43160;SDS011;40968;52.342;5.528;2022-08-18T08:37:45;10.05;;;4.38;;
43160;SDS011;40968;52.342;5.528;2022-08-18T08:40:17;9.30;;;4.80;;
43160;SDS011;40968;52.342;5.528;2022-08-18T08:42:49;10.00;;;4.80;;
43160;SDS011;40968;52.342;5.528;2022-08-18T08:45:21;12.40;;;5.00;;
43160;SDS011;40968;52.342;5.528;2022-08-18T08:47:55;9.15;;;4.43;;
43160;SDS011;40968;52.342;5.528;2022-08-18T08:50:27;9.40;;;4.55;;
43160;SDS011;40968;52.342;5.528;2022-08-18T08:52:56;9.75;;;4.85;;
43160;SDS011;40968;52.342;5.528;2022-08-18T08:57:55;7.50;;;3.95;;
43160;SDS011;40968;52.342;5.528;2022-08-18T09:00:27;12.68;;;4.78;;
43160;SDS011;40968;52.342;5.528;2022-08-18T09:03:03;8.38;;;4.53;;
43160;SDS011;40968;52.342;5.528;2022-08-18T09:05:39;9.77;;;4.63;;
43160;SDS011;40968;52.342;5.528;2022-08-18T09:11:29;8.02;;;4.40;;
43160;SDS011;40968;52.342;5.528;2022-08-18T09:14:29;10.93;;;5.05;;
43160;SDS011;40968;52.342;5.528;2022-08-18T09:17:26;12.32;;;4.53;;
43160;SDS011;40968;52.342;5.528;2022-08-18T09:20:14;10.73;;;4.45;;
43160;SDS011;40968;52.342;5.528;2022-08-18T09:22:53;9.07;;;4.68;;
43160;SDS011;40968;52.342;5.528;2022-08-18T09:25:30;14.02;;;5.15;;
43160;SDS011;40968;52.342;5.528;2022-08-18T09:28:09;10.25;;;5.25;;
43160;SDS011;40968;52.342;5.528;2022-08-18T09:30:42;12.68;;;5.53;;
43160;SDS011;40968;52.342;5.528;2022-08-18T09:33:18;10.65;;;5.20;;
43160;SDS011;40968;52.342;5.528;2022-08-18T09:36:00;8.38;;;4.80;;
43160;SDS011;40968;52.342;5.528;2022-08-18T09:38:36;9.05;;;4.82;;
43160;SDS011;40968;52.342;5.528;2022-08-18T09:41:32;12.77;;;5.53;;
43160;SDS011;40968;52.342;5.528;2022-08-18T09:44:02;8.60;;;4.28;;
43160;SDS011;40968;52.342;5.528;2022-08-18T09:46:54;10.82;;;5.13;;
43160;SDS011;40968;52.342;5.528;2022-08-18T09:49:39;10.48;;;4.32;;
43160;SDS011;40968;52.342;5.528;2022-08-18T09:55:38;12.55;;;4.93;;
43160;SDS011;40968;52.342;5.528;2022-08-18T09:58:18;13.55;;;4.90;;
43160;SDS011;40968;52.342;5.528;2022-08-18T10:00:52;15.02;;;4.97;;
43160;SDS011;40968;52.342;5.528;2022-08-18T10:06:48;13.77;;;5.35;;
43160;SDS011;40968;52.342;5.528;2022-08-18T10:09:19;11.13;;;5.40;;
43160;SDS011;40968;52.342;5.528;2022-08-18T10:11:57;11.50;;;4.70;;
43160;SDS011;40968;52.342;5.528;2022-08-18T10:14:54;11.85;;;5.00;;
43160;SDS011;40968;52.342;5.528;2022-08-18T10:17:34;8.80;;;4.40;;
43160;SDS011;40968;52.342;5.528;2022-08-18T10:20:17;8.68;;;4.10;;
43160;SDS011;40968;52.342;5.528;2022-08-18T10:22:52;9.07;;;3.77;;
43160;SDS011;40968;52.342;5.528;2022-08-18T10:25:31;13.07;;;4.13;;
43160;SDS011;40968;52.342;5.528;2022-08-18T10:28:02;9.30;;;3.72;;
43160;SDS011;40968;52.342;5.528;2022-08-18T10:30:47;9.10;;;3.20;;
43160;SDS011;40968;52.342;5.528;2022-08-18T10:39:11;6.40;;;3.33;;
43160;SDS011;40968;52.342;5.528;2022-08-18T10:41:50;5.43;;;3.03;;
43160;SDS011;40968;52.342;5.528;2022-08-18T10:44:23;5.28;;;2.45;;
43160;SDS011;40968;52.342;5.528;2022-08-18T10:46:52;6.30;;;2.35;;
43160;SDS011;40968;52.342;5.528;2022-08-18T10:49:21;5.13;;;2.80;;
43160;SDS011;40968;52.342;5.528;2022-08-18T10:51:56;5.45;;;2.63;;
43160;SDS011;40968;52.342;5.528;2022-08-18T10:54:49;5.05;;;2.55;;
43160;SDS011;40968;52.342;5.528;2022-08-18T10:57:29;9.02;;;3.08;;
43160;SDS011;40968;52.342;5.528;2022-08-18T11:00:05;8.50;;;2.92;;
43160;SDS011;40968;52.342;5.528;2022-08-18T11:02:39;7.40;;;2.80;;
43160;SDS011;40968;52.342;5.528;2022-08-18T11:05:21;8.80;;;3.08;;
43160;SDS011;40968;52.342;5.528;2022-08-18T11:07:50;5.68;;;3.03;;
43160;SDS011;40968;52.342;5.528;2022-08-18T11:10:34;6.07;;;2.50;;
43160;SDS011;40968;52.342;5.528;2022-08-18T11:13:04;5.50;;;2.33;;
43160;SDS011;40968;52.342;5.528;2022-08-18T11:15:42;9.10;;;3.20;;
43160;SDS011;40968;52.342;5.528;2022-08-18T11:18:20;4.82;;;2.83;;
43160;SDS011;40968;52.342;5.528;2022-08-18T11:24:02;8.20;;;2.80;;
43160;SDS011;40968;52.342;5.528;2022-08-18T11:26:31;7.40;;;3.00;;
43160;SDS011;40968;52.342;5.528;2022-08-18T11:28:58;6.80;;;3.30;;
43160;SDS011;40968;52.342;5.528;2022-08-18T11:31:26;8.50;;;3.28;;
43160;SDS011;40968;52.342;5.528;2022-08-18T11:33:53;10.40;;;3.28;;
43160;SDS011;40968;52.342;5.528;2022-08-18T11:36:28;5.97;;;2.97;;
43160;SDS011;40968;52.342;5.528;2022-08-18T11:38:55;8.43;;;3.20;;
43160;SDS011;40968;52.342;5.528;2022-08-18T11:41:24;7.85;;;3.10;;
43160;SDS011;40968;52.342;5.528;2022-08-18T11:43:54;6.28;;;3.20;;
43160;SDS011;40968;52.342;5.528;2022-08-18T11:46:22;7.18;;;3.17;;
43160;SDS011;40968;52.342;5.528;2022-08-18T11:48:54;8.90;;;3.42;;
43160;SDS011;40968;52.342;5.528;2022-08-18T11:51:22;7.97;;;3.75;;
43160;SDS011;40968;52.342;5.528;2022-08-18T11:53:51;6.30;;;2.67;;
43160;SDS011;40968;52.342;5.528;2022-08-18T11:56:22;6.43;;;3.10;;
43160;SDS011;40968;52.342;5.528;2022-08-18T11:58:50;6.57;;;3.15;;
43160;SDS011;40968;52.342;5.528;2022-08-18T12:01:34;7.05;;;3.35;;
43160;SDS011;40968;52.342;5.528;2022-08-18T12:04:09;6.25;;;2.90;;
43160;SDS011;40968;52.342;5.528;2022-08-18T12:06:49;8.23;;;3.13;;
43160;SDS011;40968;52.342;5.528;2022-08-18T12:09:25;9.80;;;3.30;;
43160;SDS011;40968;52.342;5.528;2022-08-18T12:11:57;4.82;;;2.90;;
43160;SDS011;40968;52.342;5.528;2022-08-18T12:14:26;5.50;;;2.88;;
43160;SDS011;40968;52.342;5.528;2022-08-18T12:16:56;8.15;;;2.78;;
43160;SDS011;40968;52.342;5.528;2022-08-18T12:19:23;5.03;;;2.63;;
43160;SDS011;40968;52.342;5.528;2022-08-18T12:21:52;5.80;;;3.00;;
43160;SDS011;40968;52.342;5.528;2022-08-18T12:24:23;7.30;;;2.50;;
43160;SDS011;40968;52.342;5.528;2022-08-18T12:26:51;4.43;;;2.50;;
43160;SDS011;40968;52.342;5.528;2022-08-18T12:29:18;5.78;;;2.58;;
43160;SDS011;40968;52.342;5.528;2022-08-18T12:31:46;5.88;;;2.67;;
43160;SDS011;40968;52.342;5.528;2022-08-18T12:34:16;5.75;;;2.38;;
43160;SDS011;40968;52.342;5.528;2022-08-18T12:36:44;4.82;;;2.20;;
43160;SDS011;40968;52.342;5.528;2022-08-18T12:39:11;5.43;;;2.10;;
43160;SDS011;40968;52.342;5.528;2022-08-18T12:41:38;7.70;;;2.90;;
43160;SDS011;40968;52.342;5.528;2022-08-18T12:44:05;4.70;;;2.47;;
43160;SDS011;40968;52.342;5.528;2022-08-18T12:46:31;7.03;;;2.70;;
43160;SDS011;40968;52.342;5.528;2022-08-18T12:48:58;9.88;;;2.80;;
43160;SDS011;40968;52.342;5.528;2022-08-18T12:51:26;5.97;;;2.08;;
43160;SDS011;40968;52.342;5.528;2022-08-18T12:53:52;5.35;;;2.35;;
43160;SDS011;40968;52.342;5.528;2022-08-18T12:56:20;3.97;;;2.25;;
43160;SDS011;40968;52.342;5.528;2022-08-18T12:58:49;5.30;;;1.90;;
43160;SDS011;40968;52.342;5.528;2022-08-18T13:01:16;5.35;;;1.92;;
43160;SDS011;40968;52.342;5.528;2022-08-18T13:03:42;4.35;;;2.13;;
43160;SDS011;40968;52.342;5.528;2022-08-18T13:06:10;6.28;;;2.03;;
43160;SDS011;40968;52.342;5.528;2022-08-18T13:08:39;9.98;;;2.58;;
43160;SDS011;40968;52.342;5.528;2022-08-18T13:11:06;6.00;;;2.10;;
43160;SDS011;40968;52.342;5.528;2022-08-18T13:13:34;10.15;;;2.53;;
43160;SDS011;40968;52.342;5.528;2022-08-18T13:16:02;7.30;;;2.60;;
43160;SDS011;40968;52.342;5.528;2022-08-18T13:18:29;7.78;;;2.72;;
43160;SDS011;40968;52.342;5.528;2022-08-18T13:20:56;6.75;;;2.33;;
43160;SDS011;40968;52.342;5.528;2022-08-18T13:23:22;4.50;;;2.35;;
43160;SDS011;40968;52.342;5.528;2022-08-18T13:25:52;6.07;;;2.50;;
43160;SDS011;40968;52.342;5.528;2022-08-18T13:28:19;4.88;;;1.83;;
43160;SDS011;40968;52.342;5.528;2022-08-18T13:30:45;7.25;;;2.22;;
43160;SDS011;40968;52.342;5.528;2022-08-18T13:33:13;3.85;;;1.77;;
43160;SDS011;40968;52.342;5.528;2022-08-18T13:35:39;4.25;;;1.80;;
43160;SDS011;40968;52.342;5.528;2022-08-18T13:38:06;4.22;;;2.10;;
43160;SDS011;40968;52.342;5.528;2022-08-18T13:40:32;4.07;;;1.88;;
43160;SDS011;40968;52.342;5.528;2022-08-18T13:43:00;3.40;;;1.70;;
43160;SDS011;40968;52.342;5.528;2022-08-18T13:45:27;4.88;;;2.00;;
43160;SDS011;40968;52.342;5.528;2022-08-18T13:47:54;6.15;;;2.05;;
43160;SDS011;40968;52.342;5.528;2022-08-18T13:50:21;3.67;;;2.05;;
43160;SDS011;40968;52.342;5.528;2022-08-18T13:52:49;4.20;;;2.45;;
43160;SDS011;40968;52.342;5.528;2022-08-18T13:55:16;5.28;;;1.83;;
43160;SDS011;40968;52.342;5.528;2022-08-18T13:57:44;4.70;;;2.15;;
43160;SDS011;40968;52.342;5.528;2022-08-18T14:00:14;8.90;;;2.10;;
43160;SDS011;40968;52.342;5.528;2022-08-18T14:02:43;4.13;;;1.83;;
43160;SDS011;40968;52.342;5.528;2022-08-18T14:05:11;5.07;;;2.08;;
43160;SDS011;40968;52.342;5.528;2022-08-18T14:07:40;6.10;;;2.15;;
43160;SDS011;40968;52.342;5.528;2022-08-18T14:10:07;3.85;;;1.80;;
43160;SDS011;40968;52.342;5.528;2022-08-18T14:12:35;7.00;;;2.10;;
43160;SDS011;40968;52.342;5.528;2022-08-18T14:15:04;6.18;;;2.17;;
43160;SDS011;40968;52.342;5.528;2022-08-18T14:17:34;4.13;;;2.13;;
43160;SDS011;40968;52.342;5.528;2022-08-18T14:20:01;7.43;;;1.90;;
43160;SDS011;40968;52.342;5.528;2022-08-18T14:22:46;4.15;;;1.88;;
43160;SDS011;40968;52.342;5.528;2022-08-18T14:25:30;5.35;;;1.77;;
43160;SDS011;40968;52.342;5.528;2022-08-18T14:28:14;6.70;;;2.20;;
43160;SDS011;40968;52.342;5.528;2022-08-18T14:30:42;3.28;;;2.05;;
43160;SDS011;40968;52.342;5.528;2022-08-18T14:33:11;3.90;;;2.13;;
43160;SDS011;40968;52.342;5.528;2022-08-18T14:35:42;4.05;;;1.70;;
43160;SDS011;40968;52.342;5.528;2022-08-18T14:38:08;3.40;;;1.77;;
43160;SDS011;40968;52.342;5.528;2022-08-18T14:40:35;2.78;;;1.67;;
43160;SDS011;40968;52.342;5.528;2022-08-18T14:43:02;3.17;;;1.73;;
43160;SDS011;40968;52.342;5.528;2022-08-18T14:45:31;4.47;;;1.80;;
43160;SDS011;40968;52.342;5.528;2022-08-18T14:47:58;7.47;;;1.55;;
43160;SDS011;40968;52.342;5.528;2022-08-18T14:50:26;4.25;;;1.88;;
43160;SDS011;40968;52.342;5.528;2022-08-18T14:52:53;5.40;;;1.90;;
43160;SDS011;40968;52.342;5.528;2022-08-18T14:55:19;4.45;;;1.92;;
43160;SDS011;40968;52.342;5.528;2022-08-18T14:57:46;3.55;;;1.80;;
43160;SDS011;40968;52.342;5.528;2022-08-18T15:00:16;3.05;;;1.90;;
43160;SDS011;40968;52.342;5.528;2022-08-18T15:02:44;4.18;;;2.00;;
43160;SDS011;40968;52.342;5.528;2022-08-18T15:05:13;6.25;;;1.70;;
43160;SDS011;40968;52.342;5.528;2022-08-18T15:07:41;4.72;;;1.90;;
43160;SDS011;40968;52.342;5.528;2022-08-18T15:10:09;6.13;;;1.98;;
43160;SDS011;40968;52.342;5.528;2022-08-18T15:12:37;5.47;;;1.77;;
43160;SDS011;40968;52.342;5.528;2022-08-18T15:15:05;3.42;;;1.80;;
43160;SDS011;40968;52.342;5.528;2022-08-18T15:17:34;3.28;;;1.65;;
43160;SDS011;40968;52.342;5.528;2022-08-18T15:20:02;7.20;;;3.05;;
43160;SDS011;40968;52.342;5.528;2022-08-18T15:22:29;6.18;;;3.10;;
43160;SDS011;40968;52.342;5.528;2022-08-18T15:25:14;4.72;;;1.85;;
43160;SDS011;40968;52.342;5.528;2022-08-18T15:28:06;5.53;;;2.30;;
43160;SDS011;40968;52.342;5.528;2022-08-18T15:30:33;5.50;;;2.15;;
43160;SDS011;40968;52.342;5.528;2022-08-18T15:33:00;3.17;;;1.95;;